Time;durP1;ratioP1;P1;durP2;ratioP2;P2;SDS_P1;SDS_P2;PMS_P1;PMS_P2;Temp;Humidity;BMP_temperature;BMP_pressure;BME280_temperature;BME280_humidity;BME280_pressure;Samples;Min_cycle;Max_cycle;Signal;HPM_P1;HPM_P2
2023/08/27 00:01:14;;;;;;;11.07;9.98;;;;;;;;;;5012910;28;20052;-76
2023/08/27 00:03:40;;;;;;;11.07;10.07;;;;;;;;;;5015868;28;20050;-76
2023/08/27 00:06:06;;;;;;;11.27;10.10;;;;;;;;;;5014421;28;20052;-76
2023/08/27 00:08:32;;;;;;;11.88;10.65;;;;;;;;;;5016015;28;20532;-76
2023/08/27 00:10:59;;;;;;;13.07;10.95;;;;;;;;;;5014329;28;20037;-76
2023/08/27 00:13:25;;;;;;;13.43;10.77;;;;;;;;;;5007969;28;21725;-76
2023/08/27 00:15:51;;;;;;;12.10;10.90;;;;;;;;;;5012880;28;20040;-76
2023/08/27 00:18:17;;;;;;;12.32;11.10;;;;;;;;;;5013912;28;20091;-76
2023/08/27 00:20:46;;;;;;;11.88;10.70;;;;;;;;;;5015742;28;20509;-76
2023/08/27 00:23:12;;;;;;;10.93;10.00;;;;;;;;;;5011085;28;20865;-76
2023/08/27 00:25:38;;;;;;;11.80;10.63;;;;;;;;;;5009002;28;20716;-76
2023/08/27 00:28:06;;;;;;;12.02;10.90;;;;;;;;;;5022556;28;20083;-76
2023/08/27 00:30:32;;;;;;;12.38;10.98;;;;;;;;;;5012962;28;20079;-76
2023/08/27 00:32:58;;;;;;;11.75;10.38;;;;;;;;;;5012061;28;20061;-76
2023/08/27 00:35:24;;;;;;;13.20;10.80;;;;;;;;;;5011008;28;20038;-76
2023/08/27 00:37:50;;;;;;;12.00;10.82;;;;;;;;;;5008271;28;20053;-76
2023/08/27 00:40:16;;;;;;;12.20;10.02;;;;;;;;;;5010731;28;20041;-76
2023/08/27 00:42:43;;;;;;;15.68;10.20;;;;;;;;;;5009857;28;20063;-76
2023/08/27 00:45:09;;;;;;;12.20;10.75;;;;;;;;;;5007855;28;20489;-76
2023/08/27 00:47:39;;;;;;;12.25;10.98;;;;;;;;;;5010945;28;20040;-76
2023/08/27 00:50:07;;;;;;;12.98;11.65;;;;;;;;;;5013552;28;21657;-76
2023/08/27 00:52:33;;;;;;;16.73;14.77;;;;;;;;;;5008757;28;20045;-76
2023/08/27 00:55:03;;;;;;;14.77;13.27;;;;;;;;;;5011851;28;20052;-76
2023/08/27 00:57:30;;;;;;;14.60;13.13;;;;;;;;;;5009755;28;20037;-76
2023/08/27 00:59:56;;;;;;;15.68;13.98;;;;;;;;;;5011971;28;20120;-76
2023/08/27 01:02:22;;;;;;;17.60;12.77;;;;;;;;;;5010285;28;20099;-76
2023/08/27 01:04:49;;;;;;;14.30;12.80;;;;;;;;;;5011669;28;20052;-76
2023/08/27 01:07:17;;;;;;;16.45;12.65;;;;;;;;;;5009878;28;20095;-76
2023/08/27 01:10:00;;;;;;;15.88;13.23;;;;;;;;;;5012191;28;20084;-76
2023/08/27 01:12:45;;;;;;;14.63;12.40;;;;;;;;;;5010940;28;20045;-76
2023/08/27 01:15:13;;;;;;;15.23;12.27;;;;;;;;;;4993462;28;20063;-76
2023/08/27 01:17:39;;;;;;;14.18;12.77;;;;;;;;;;5011833;28;20057;-76
2023/08/27 01:20:06;;;;;;;18.00;13.10;;;;;;;;;;5013187;28;20041;-76
2023/08/27 01:22:32;;;;;;;14.15;12.75;;;;;;;;;;5009540;28;20049;-76
2023/08/27 01:24:58;;;;;;;15.43;13.57;;;;;;;;;;5011376;28;20047;-76
2023/08/27 01:27:29;;;;;;;14.68;13.02;;;;;;;;;;4996252;28;20049;-76
2023/08/27 01:30:02;;;;;;;17.98;13.60;;;;;;;;;;5016892;28;20150;-76
2023/08/27 01:32:44;;;;;;;14.38;13.07;;;;;;;;;;5013023;28;20045;-76
2023/08/27 01:35:11;;;;;;;15.23;13.63;;;;;;;;;;5013442;28;20045;-76
2023/08/27 01:37:38;;;;;;;16.17;13.82;;;;;;;;;;5014331;28;20045;-76
2023/08/27 01:40:07;;;;;;;16.20;14.50;;;;;;;;;;4995637;28;20045;-76
2023/08/27 01:42:35;;;;;;;18.83;15.55;;;;;;;;;;5011555;28;20984;-76
2023/08/27 01:45:02;;;;;;;15.60;13.80;;;;;;;;;;5012901;28;20049;-76
2023/08/27 01:47:28;;;;;;;15.02;13.50;;;;;;;;;;5014152;28;20493;-76
2023/08/27 01:49:54;;;;;;;16.38;14.32;;;;;;;;;;5008045;28;20104;-76
2023/08/27 01:52:20;;;;;;;18.58;14.95;;;;;;;;;;5011859;28;20056;-76
2023/08/27 01:54:46;;;;;;;16.65;14.35;;;;;;;;;;5015430;28;20038;-76
2023/08/27 01:57:13;;;;;;;16.38;14.65;;;;;;;;;;5012011;28;22093;-76
2023/08/27 01:59:39;;;;;;;17.40;15.18;;;;;;;;;;5012248;28;21022;-76
2023/08/27 02:02:05;;;;;;;17.42;15.73;;;;;;;;;;5011171;28;20487;-76
2023/08/27 02:04:31;;;;;;;19.73;15.15;;;;;;;;;;5011973;28;20168;-76
2023/08/27 02:06:57;;;;;;;17.13;14.48;;;;;;;;;;5012651;28;20405;-75
2023/08/27 02:09:23;;;;;;;16.15;14.60;;;;;;;;;;5011686;28;20037;-75
2023/08/27 02:11:50;;;;;;;16.77;13.98;;;;;;;;;;5013278;28;20037;-75
2023/08/27 02:14:16;;;;;;;17.48;13.35;;;;;;;;;;5010726;28;22117;-76
2023/08/27 02:16:42;;;;;;;16.58;14.32;;;;;;;;;;5011798;28;20049;-75
2023/08/27 02:19:08;;;;;;;19.98;14.25;;;;;;;;;;5034175;28;20052;-75
2023/08/27 02:21:35;;;;;;;15.27;13.77;;;;;;;;;;5032628;28;20048;-75
2023/08/27 02:24:01;;;;;;;15.50;13.77;;;;;;;;;;5018123;28;22161;-76
2023/08/27 02:26:27;;;;;;;16.77;14.32;;;;;;;;;;5015022;28;20135;-76
2023/08/27 02:28:54;;;;;;;17.27;13.18;;;;;;;;;;5032393;28;20520;-76
2023/08/27 02:31:20;;;;;;;17.05;13.55;;;;;;;;;;5017190;28;20049;-76
2023/08/27 02:33:46;;;;;;;15.27;13.75;;;;;;;;;;5034798;28;20135;-76
2023/08/27 02:36:12;;;;;;;15.73;14.13;;;;;;;;;;5014446;28;20045;-76
2023/08/27 02:38:38;;;;;;;15.05;13.55;;;;;;;;;;5034268;28;20042;-76
2023/08/27 02:41:04;;;;;;;16.52;13.60;;;;;;;;;;5014768;28;21294;-76
2023/08/27 02:43:30;;;;;;;17.40;14.57;;;;;;;;;;5033607;28;20051;-76
2023/08/27 02:45:57;;;;;;;15.55;13.88;;;;;;;;;;5014846;28;20048;-75
2023/08/27 02:48:23;;;;;;;16.63;14.38;;;;;;;;;;5017071;28;20076;-75
2023/08/27 02:50:49;;;;;;;17.35;15.40;;;;;;;;;;5019942;28;20440;-75
2023/08/27 02:53:15;;;;;;;17.95;13.73;;;;;;;;;;5020190;28;20040;-75
2023/08/27 02:55:41;;;;;;;21.10;14.32;;;;;;;;;;5016011;28;20045;-75
2023/08/27 02:58:07;;;;;;;15.82;14.10;;;;;;;;;;5018369;28;20040;-75
2023/08/27 03:00:33;;;;;;;15.93;14.23;;;;;;;;;;5035400;28;20066;-75
2023/08/27 03:02:59;;;;;;;16.02;13.82;;;;;;;;;;5015379;28;20040;-75
2023/08/27 03:05:25;;;;;;;15.02;13.25;;;;;;;;;;5018475;28;20048;-75
2023/08/27 03:07:52;;;;;;;16.42;12.95;;;;;;;;;;5035547;28;20889;-75
2023/08/27 03:10:18;;;;;;;14.93;13.32;;;;;;;;;;5018445;28;20441;-75
2023/08/27 03:12:44;;;;;;;17.10;13.43;;;;;;;;;;5035291;28;20049;-76
2023/08/27 03:15:10;;;;;;;16.30;13.98;;;;;;;;;;4998398;28;20507;-75
2023/08/27 03:17:36;;;;;;;17.42;13.85;;;;;;;;;;5018033;28;20179;-75
2023/08/27 03:20:02;;;;;;;14.93;13.43;;;;;;;;;;5032382;28;20067;-75
2023/08/27 03:22:28;;;;;;;17.83;14.13;;;;;;;;;;5015835;28;20091;-75
2023/08/27 03:24:54;;;;;;;18.38;14.60;;;;;;;;;;5012904;28;20058;-74
2023/08/27 03:27:21;;;;;;;18.85;14.73;;;;;;;;;;5014910;28;20517;-75
2023/08/27 03:29:47;;;;;;;18.42;14.88;;;;;;;;;;5015438;28;20044;-74
2023/08/27 03:32:15;;;;;;;19.67;15.70;;;;;;;;;;5032799;28;20032;-74
2023/08/27 03:34:41;;;;;;;17.75;14.25;;;;;;;;;;5018866;28;20134;-74
2023/08/27 03:37:07;;;;;;;18.48;16.45;;;;;;;;;;5032564;28;20493;-75
2023/08/27 03:39:33;;;;;;;22.15;15.55;;;;;;;;;;5033771;28;20123;-74
2023/08/27 03:41:59;;;;;;;23.77;14.88;;;;;;;;;;5032048;28;20150;-75
2023/08/27 03:44:25;;;;;;;20.33;17.08;;;;;;;;;;5020300;28;20045;-74
2023/08/27 03:46:51;;;;;;;20.77;16.35;;;;;;;;;;5015192;28;20055;-74
2023/08/27 03:49:17;;;;;;;17.13;15.32;;;;;;;;;;5017689;28;20123;-75
2023/08/27 03:51:43;;;;;;;17.83;15.55;;;;;;;;;;5035378;28;20041;-75
2023/08/27 03:54:09;;;;;;;19.75;15.60;;;;;;;;;;5018004;28;21989;-75
2023/08/27 03:56:35;;;;;;;19.63;14.27;;;;;;;;;;5018940;28;20045;-75
2023/08/27 03:59:01;;;;;;;17.45;15.70;;;;;;;;;;5007785;28;20052;-74
2023/08/27 04:01:28;;;;;;;16.75;14.95;;;;;;;;;;5003294;28;20045;-74
2023/08/27 04:03:54;;;;;;;15.95;13.85;;;;;;;;;;5035776;28;20059;-75
2023/08/27 04:06:21;;;;;;;15.80;13.95;;;;;;;;;;5035623;28;20076;-74
2023/08/27 04:08:48;;;;;;;16.33;14.63;;;;;;;;;;5036290;28;20068;-74
2023/08/27 04:11:15;;;;;;;19.10;15.20;;;;;;;;;;5016077;28;20589;-74
2023/08/27 04:13:41;;;;;;;17.52;15.65;;;;;;;;;;5018805;28;20068;-74
2023/08/27 04:16:08;;;;;;;18.05;15.70;;;;;;;;;;5016922;28;20102;-74
2023/08/27 04:18:34;;;;;;;19.10;15.25;;;;;;;;;;5017450;28;20451;-74
2023/08/27 04:21:00;;;;;;;19.40;15.10;;;;;;;;;;5013075;28;20118;-74
2023/08/27 04:23:27;;;;;;;16.63;14.82;;;;;;;;;;5014156;28;20118;-74
2023/08/27 04:25:53;;;;;;;19.02;15.90;;;;;;;;;;5014943;28;20049;-74
2023/08/27 04:28:20;;;;;;;19.23;16.52;;;;;;;;;;5032692;28;20045;-74
2023/08/27 04:30:49;;;;;;;19.20;15.93;;;;;;;;;;5016172;28;20109;-74
2023/08/27 04:33:16;;;;;;;18.67;16.67;;;;;;;;;;5015135;28;20898;-74
2023/08/27 04:35:44;;;;;;;21.75;16.80;;;;;;;;;;5016680;28;20514;-74
2023/08/27 04:38:13;;;;;;;19.92;16.70;;;;;;;;;;5021710;28;20152;-74
2023/08/27 04:40:39;;;;;;;17.23;15.40;;;;;;;;;;5018114;28;20040;-74
2023/08/27 04:43:05;;;;;;;19.05;16.88;;;;;;;;;;5006029;28;20245;-74
2023/08/27 04:45:31;;;;;;;19.25;17.17;;;;;;;;;;5033990;28;21956;-74
2023/08/27 04:47:57;;;;;;;19.27;16.52;;;;;;;;;;5017252;28;20044;-74
2023/08/27 04:50:24;;;;;;;18.27;16.25;;;;;;;;;;5015360;28;20041;-74
2023/08/27 04:52:50;;;;;;;18.55;16.08;;;;;;;;;;5002948;28;20094;-74
2023/08/27 04:55:16;;;;;;;18.58;15.65;;;;;;;;;;5007777;28;20083;-74
2023/08/27 04:57:42;;;;;;;17.55;15.65;;;;;;;;;;5023413;28;20147;-74
2023/08/27 05:00:23;;;;;;;19.35;15.85;;;;;;;;;;5031968;28;20052;-74
2023/08/27 05:02:49;;;;;;;18.42;15.82;;;;;;;;;;5017303;28;20044;-74
2023/08/27 05:05:16;;;;;;;18.08;14.50;;;;;;;;;;5030532;28;20455;-74
2023/08/27 05:07:42;;;;;;;16.33;14.60;;;;;;;;;;5013334;28;20052;-74
2023/08/27 05:10:09;;;;;;;16.65;14.65;;;;;;;;;;5014608;28;20036;-74
2023/08/27 05:12:35;;;;;;;20.13;15.23;;;;;;;;;;5015300;28;20114;-74
2023/08/27 05:15:01;;;;;;;16.88;14.85;;;;;;;;;;5013187;28;20040;-74
2023/08/27 05:17:27;;;;;;;16.42;14.50;;;;;;;;;;5012561;28;20455;-74
2023/08/27 05:19:53;;;;;;;19.95;15.05;;;;;;;;;;5031276;28;21016;-74
2023/08/27 05:22:19;;;;;;;17.65;14.38;;;;;;;;;;5013418;28;20392;-74
2023/08/27 05:24:45;;;;;;;18.08;14.60;;;;;;;;;;5021608;28;20048;-74
2023/08/27 05:27:11;;;;;;;19.95;14.23;;;;;;;;;;5013071;28;20090;-74
2023/08/27 05:29:37;;;;;;;17.85;14.65;;;;;;;;;;5032007;28;20047;-74
2023/08/27 05:32:05;;;;;;;16.67;13.75;;;;;;;;;;5033077;28;20071;-74
2023/08/27 05:34:31;;;;;;;15.70;14.07;;;;;;;;;;5040238;28;20056;-74
2023/08/27 05:36:57;;;;;;;15.38;13.75;;;;;;;;;;5019154;28;20094;-74
2023/08/27 05:39:24;;;;;;;15.57;13.98;;;;;;;;;;5023744;28;20045;-74
2023/08/27 05:41:50;;;;;;;16.20;14.10;;;;;;;;;;5020948;28;20119;-74
2023/08/27 05:44:16;;;;;;;16.13;14.23;;;;;;;;;;5018964;28;20056;-74
2023/08/27 05:46:42;;;;;;;15.90;14.00;;;;;;;;;;5039155;28;20049;-74
2023/08/27 05:49:08;;;;;;;18.38;13.98;;;;;;;;;;5037138;28;20493;-74
2023/08/27 05:51:34;;;;;;;15.95;13.57;;;;;;;;;;5036052;28;20036;-74
2023/08/27 05:54:00;;;;;;;16.55;13.50;;;;;;;;;;5003258;28;20186;-74
2023/08/27 05:56:27;;;;;;;16.02;13.63;;;;;;;;;;5002545;28;20044;-74
2023/08/27 05:58:53;;;;;;;17.33;13.57;;;;;;;;;;5013981;28;20044;-74
2023/08/27 06:01:19;;;;;;;15.38;13.85;;;;;;;;;;5031319;28;20132;-74
2023/08/27 06:03:46;;;;;;;17.48;13.52;;;;;;;;;;5018274;28;20049;-74
2023/08/27 06:06:12;;;;;;;19.88;13.27;;;;;;;;;;5030507;28;20041;-74
2023/08/27 06:08:38;;;;;;;14.70;13.05;;;;;;;;;;5009873;28;20068;-74
2023/08/27 06:11:04;;;;;;;13.50;11.55;;;;;;;;;;5000734;28;20053;-74
2023/08/27 06:13:31;;;;;;;13.77;12.15;;;;;;;;;;5016668;28;20055;-74
2023/08/27 06:15:57;;;;;;;13.57;11.13;;;;;;;;;;5016271;28;20670;-74
2023/08/27 06:18:23;;;;;;;13.27;11.95;;;;;;;;;;5019249;28;20949;-74
2023/08/27 06:20:50;;;;;;;16.23;12.07;;;;;;;;;;5017650;28;20177;-75
2023/08/27 06:23:16;;;;;;;13.52;11.80;;;;;;;;;;5018832;28;20048;-74
2023/08/27 06:25:42;;;;;;;11.48;10.32;;;;;;;;;;5038325;28;20068;-75
2023/08/27 06:28:09;;;;;;;11.82;10.60;;;;;;;;;;5019768;28;20889;-75
2023/08/27 06:30:35;;;;;;;11.38;9.95;;;;;;;;;;5036444;28;20622;-75
2023/08/27 06:33:02;;;;;;;12.40;10.20;;;;;;;;;;5017559;28;20048;-75
2023/08/27 06:35:28;;;;;;;20.30;10.18;;;;;;;;;;5017059;28;20041;-74
2023/08/27 06:37:54;;;;;;;11.38;8.98;;;;;;;;;;5035381;28;20040;-74
2023/08/27 06:40:20;;;;;;;11.73;9.65;;;;;;;;;;5037795;28;20045;-74
2023/08/27 06:42:46;;;;;;;10.98;9.05;;;;;;;;;;5019697;28;20071;-74
2023/08/27 06:45:12;;;;;;;10.40;9.10;;;;;;;;;;5021219;28;20457;-75
2023/08/27 06:47:38;;;;;;;10.75;9.27;;;;;;;;;;5037928;28;20052;-75
2023/08/27 06:50:05;;;;;;;12.35;8.82;;;;;;;;;;5034750;28;20041;-74
2023/08/27 06:52:32;;;;;;;11.68;8.63;;;;;;;;;;5002091;28;20106;-74
2023/08/27 06:54:58;;;;;;;9.55;8.63;;;;;;;;;;5033636;28;20048;-74
2023/08/27 06:57:24;;;;;;;9.73;8.73;;;;;;;;;;5037112;28;20044;-74
2023/08/27 06:59:50;;;;;;;8.93;8.02;;;;;;;;;;5019128;28;20036;-74
2023/08/27 07:02:16;;;;;;;10.82;8.88;;;;;;;;;;5017135;28;20041;-74
2023/08/27 07:04:43;;;;;;;10.07;8.23;;;;;;;;;;5018713;28;20040;-75
2023/08/27 07:07:09;;;;;;;11.20;8.68;;;;;;;;;;5017919;28;20175;-75
2023/08/27 07:09:35;;;;;;;10.43;9.32;;;;;;;;;;5018345;28;20072;-75
2023/08/27 07:12:02;;;;;;;12.50;9.73;;;;;;;;;;5018575;28;20048;-75
2023/08/27 07:14:28;;;;;;;11.38;9.65;;;;;;;;;;5024739;28;21207;-75
2023/08/27 07:16:54;;;;;;;12.43;10.00;;;;;;;;;;5037502;28;20040;-75
2023/08/27 07:19:20;;;;;;;14.60;9.98;;;;;;;;;;5035583;28;20057;-75
2023/08/27 07:21:46;;;;;;;11.77;10.00;;;;;;;;;;5022689;28;20032;-75
2023/08/27 07:24:13;;;;;;;14.57;11.32;;;;;;;;;;5032461;28;20098;-76
2023/08/27 07:26:39;;;;;;;11.75;10.32;;;;;;;;;;5034553;28;20451;-77
2023/08/27 07:29:06;;;;;;;18.90;10.57;;;;;;;;;;5015337;28;20550;-78
2023/08/27 07:31:32;;;;;;;13.00;9.68;;;;;;;;;;5016635;28;20086;-77
2023/08/27 07:33:58;;;;;;;17.10;10.73;;;;;;;;;;5016948;28;20060;-77
2023/08/27 07:36:24;;;;;;;14.10;9.40;;;;;;;;;;5020155;28;20048;-76
2023/08/27 07:38:51;;;;;;;15.18;8.48;;;;;;;;;;5035570;28;20051;-76
2023/08/27 07:41:17;;;;;;;11.25;8.00;;;;;;;;;;5002681;28;20095;-75
2023/08/27 07:43:43;;;;;;;10.30;7.78;;;;;;;;;;5019878;28;20091;-75
2023/08/27 07:46:09;;;;;;;9.60;6.90;;;;;;;;;;5039067;28;20101;-75
2023/08/27 07:48:35;;;;;;;7.90;6.45;;;;;;;;;;5040219;28;20118;-75
2023/08/27 07:51:02;;;;;;;12.82;7.25;;;;;;;;;;5023972;28;20041;-75
2023/08/27 07:53:29;;;;;;;12.05;8.00;;;;;;;;;;5041787;28;20052;-75
2023/08/27 07:55:55;;;;;;;12.20;8.88;;;;;;;;;;5028319;28;20040;-75
2023/08/27 07:58:21;;;;;;;11.90;8.52;;;;;;;;;;5023614;28;20963;-75
2023/08/27 08:00:48;;;;;;;11.63;8.50;;;;;;;;;;5038925;28;20103;-75
2023/08/27 08:03:14;;;;;;;11.10;7.65;;;;;;;;;;5024308;28;20052;-75
2023/08/27 08:05:40;;;;;;;11.50;8.05;;;;;;;;;;5022398;28;21885;-74
2023/08/27 08:08:06;;;;;;;9.80;7.80;;;;;;;;;;5040022;28;20048;-74
2023/08/27 08:10:32;;;;;;;12.77;6.65;;;;;;;;;;5040483;28;20048;-74
2023/08/27 08:12:58;;;;;;;8.25;6.95;;;;;;;;;;5037894;28;20048;-74
2023/08/27 08:15:24;;;;;;;8.68;7.28;;;;;;;;;;5036602;28;20926;-74
2023/08/27 08:17:50;;;;;;;7.25;6.38;;;;;;;;;;5018988;28;20053;-74
2023/08/27 08:20:17;;;;;;;10.45;7.00;;;;;;;;;;5036307;28;20534;-74
2023/08/27 08:22:43;;;;;;;6.05;5.45;;;;;;;;;;5037627;28;20078;-74
2023/08/27 08:25:09;;;;;;;10.85;5.50;;;;;;;;;;5034837;28;20509;-74
2023/08/27 08:27:35;;;;;;;7.00;3.95;;;;;;;;;;5035390;28;20153;-74
2023/08/27 08:30:03;;;;;;;10.07;3.92;;;;;;;;;;5035050;28;20041;-74
2023/08/27 08:32:29;;;;;;;4.60;2.92;;;;;;;;;;5018181;28;20097;-74
2023/08/27 08:34:55;;;;;;;3.92;2.60;;;;;;;;;;5000913;28;20036;-74
2023/08/27 08:37:21;;;;;;;5.10;2.35;;;;;;;;;;5035640;28;21996;-74
2023/08/27 08:39:47;;;;;;;2.28;1.90;;;;;;;;;;5035773;28;20468;-75
2023/08/27 08:42:13;;;;;;;4.53;1.70;;;;;;;;;;5015306;28;20126;-75
2023/08/27 08:44:45;;;;;;;3.33;1.50;;;;;;;;;;5019332;28;20071;-74
2023/08/27 08:47:12;;;;;;;3.53;1.67;;;;;;;;;;5017000;28;20039;-74
2023/08/27 08:49:40;;;;;;;5.65;2.00;;;;;;;;;;5037139;28;20089;-75
2023/08/27 08:52:11;;;;;;;3.53;1.60;;;;;;;;;;5021179;28;20044;-74
2023/08/27 08:54:37;;;;;;;3.47;1.60;;;;;;;;;;5022340;28;20063;-74
2023/08/27 08:57:05;;;;;;;2.60;1.25;;;;;;;;;;5035685;28;20757;-74
2023/08/27 08:59:31;;;;;;;4.60;2.00;;;;;;;;;;5014846;28;20048;-74
2023/08/27 09:01:58;;;;;;;2.55;1.65;;;;;;;;;;5032233;28;21605;-75
2023/08/27 09:04:24;;;;;;;3.40;1.92;;;;;;;;;;5033162;28;20048;-74
2023/08/27 09:06:50;;;;;;;2.22;1.63;;;;;;;;;;5012016;28;20167;-75
2023/08/27 09:09:17;;;;;;;3.88;1.95;;;;;;;;;;5029825;28;20584;-75
2023/08/27 09:11:44;;;;;;;3.10;2.22;;;;;;;;;;5030783;28;20075;-76
2023/08/27 09:14:10;;;;;;;4.38;1.92;;;;;;;;;;5031640;28;20829;-75
2023/08/27 09:16:36;;;;;;;2.70;1.73;;;;;;;;;;5014091;28;20044;-75
2023/08/27 09:19:02;;;;;;;3.00;1.92;;;;;;;;;;5031882;28;20056;-76
2023/08/27 09:21:29;;;;;;;2.70;1.90;;;;;;;;;;5013102;28;20485;-75
2023/08/27 09:23:55;;;;;;;4.38;2.38;;;;;;;;;;5032156;28;20060;-75
2023/08/27 09:26:22;;;;;;;3.03;2.15;;;;;;;;;;5033094;28;20187;-77
2023/08/27 09:28:48;;;;;;;2.90;1.90;;;;;;;;;;5033905;28;20048;-77
2023/08/27 09:31:34;;;;;;;4.90;2.55;;;;;;;;;;5032872;28;20040;-76
2023/08/27 09:34:00;;;;;;;3.45;2.05;;;;;;;;;;5013676;28;20098;-75
2023/08/27 09:36:26;;;;;;;2.63;1.80;;;;;;;;;;5013116;28;20047;-76
2023/08/27 09:38:52;;;;;;;3.47;1.90;;;;;;;;;;5012772;28;20393;-76
2023/08/27 09:41:18;;;;;;;2.92;2.05;;;;;;;;;;5028563;28;20044;-77
2023/08/27 09:43:51;;;;;;;4.38;2.63;;;;;;;;;;5029376;28;20079;-76
2023/08/27 09:46:18;;;;;;;7.00;2.70;;;;;;;;;;5028934;28;20669;-76
2023/08/27 09:48:44;;;;;;;3.35;2.00;;;;;;;;;;5035473;28;20056;-76
2023/08/27 09:51:11;;;;;;;2.60;2.00;;;;;;;;;;5022025;28;20477;-75
2023/08/27 09:53:37;;;;;;;3.15;2.17;;;;;;;;;;5021579;28;20049;-76
2023/08/27 09:56:06;;;;;;;4.22;2.08;;;;;;;;;;5002866;28;20045;-76
2023/08/27 09:58:32;;;;;;;3.88;2.22;;;;;;;;;;5041250;28;20048;-75
2023/08/27 10:00:59;;;;;;;2.78;2.08;;;;;;;;;;5038703;28;20044;-75
2023/08/27 10:03:25;;;;;;;3.08;2.28;;;;;;;;;;5006009;28;20762;-76
2023/08/27 10:05:51;;;;;;;3.03;1.98;;;;;;;;;;5004397;28;20048;-75
2023/08/27 10:08:17;;;;;;;3.35;2.33;;;;;;;;;;5038237;28;20454;-75
2023/08/27 10:10:43;;;;;;;5.93;1.95;;;;;;;;;;5037678;28;20607;-75
2023/08/27 10:13:11;;;;;;;3.53;2.08;;;;;;;;;;5022412;28;20127;-76
2023/08/27 10:15:37;;;;;;;3.28;1.70;;;;;;;;;;5012564;28;20550;-76
2023/08/27 10:18:12;;;;;;;3.72;1.70;;;;;;;;;;5018240;28;20647;-75
2023/08/27 10:20:41;;;;;;;2.85;1.70;;;;;;;;;;5017450;28;20049;-75
2023/08/27 10:23:08;;;;;;;3.55;1.90;;;;;;;;;;5014896;28;20140;-76
2023/08/27 10:25:35;;;;;;;2.63;1.60;;;;;;;;;;5033131;28;20474;-76
2023/08/27 10:28:01;;;;;;;4.00;1.70;;;;;;;;;;5013670;28;20501;-76
2023/08/27 10:30:28;;;;;;;2.70;1.75;;;;;;;;;;5012342;28;20131;-76
2023/08/27 10:32:54;;;;;;;2.53;2.03;;;;;;;;;;5016448;28;20549;-77
2023/08/27 10:35:20;;;;;;;2.92;1.85;;;;;;;;;;5015138;28;20067;-77
2023/08/27 10:37:49;;;;;;;2.13;1.50;;;;;;;;;;5031905;28;20041;-77
2023/08/27 10:40:15;;;;;;;2.22;1.48;;;;;;;;;;5035397;28;20541;-77
2023/08/27 10:42:41;;;;;;;2.38;1.83;;;;;;;;;;5034563;28;20044;-76
2023/08/27 10:45:11;;;;;;;2.20;1.48;;;;;;;;;;5034427;28;20453;-76
2023/08/27 10:47:38;;;;;;;2.03;1.38;;;;;;;;;;5035545;28;20131;-76
2023/08/27 10:50:05;;;;;;;1.77;1.40;;;;;;;;;;5008474;28;20044;-76
2023/08/27 10:52:47;;;;;;;1.83;1.50;;;;;;;;;;5037310;28;21637;-76
2023/08/27 10:55:13;;;;;;;1.67;1.35;;;;;;;;;;5019750;28;20045;-76
2023/08/27 10:57:39;;;;;;;1.55;1.00;;;;;;;;;;5021881;28;20072;-77
2023/08/27 11:00:10;;;;;;;1.98;1.33;;;;;;;;;;5038538;28;20556;-76
2023/08/27 11:02:56;;;;;;;1.65;1.05;;;;;;;;;;5017649;28;20083;-77
2023/08/27 11:05:29;;;;;;;2.55;1.45;;;;;;;;;;5030043;28;20045;-76
2023/08/27 11:07:59;;;;;;;1.63;1.40;;;;;;;;;;5017537;28;20573;-77
2023/08/27 11:10:31;;;;;;;1.73;1.20;;;;;;;;;;5031717;28;20067;-77
2023/08/27 11:12:58;;;;;;;1.75;1.20;;;;;;;;;;5029976;28;20060;-77
2023/08/27 11:15:28;;;;;;;1.60;1.17;;;;;;;;;;4998235;28;20417;-77
2023/08/27 11:17:54;;;;;;;2.55;0.90;;;;;;;;;;5031919;28;20041;-77
2023/08/27 11:20:30;;;;;;;1.50;1.20;;;;;;;;;;5029873;28;20044;-76
2023/08/27 11:22:56;;;;;;;1.65;1.10;;;;;;;;;;5014231;28;20389;-77
2023/08/27 11:25:24;;;;;;;2.58;1.05;;;;;;;;;;5033805;28;20064;-76
2023/08/27 11:27:51;;;;;;;3.83;1.10;;;;;;;;;;5015860;28;20049;-76
2023/08/27 11:30:17;;;;;;;1.10;1.00;;;;;;;;;;4999677;28;20510;-76
2023/08/27 11:32:44;;;;;;;3.53;1.73;;;;;;;;;;5010741;28;20063;-76
2023/08/27 11:35:14;;;;;;;1.70;1.10;;;;;;;;;;5029249;28;20056;-76
2023/08/27 11:37:40;;;;;;;2.08;1.20;;;;;;;;;;5028012;28;20032;-77
2023/08/27 11:40:15;;;;;;;2.05;1.10;;;;;;;;;;5014825;28;20453;-76
2023/08/27 11:42:54;;;;;;;1.73;1.30;;;;;;;;;;5031480;28;20594;-77
2023/08/27 11:45:30;;;;;;;1.48;1.25;;;;;;;;;;5028519;28;20400;-76
2023/08/27 11:47:57;;;;;;;2.33;1.48;;;;;;;;;;5009525;28;20056;-76
2023/08/27 11:50:23;;;;;;;1.60;1.25;;;;;;;;;;5027850;28;20048;-76
2023/08/27 11:52:49;;;;;;;1.55;1.08;;;;;;;;;;5029510;28;20045;-76
2023/08/27 11:55:20;;;;;;;3.75;1.48;;;;;;;;;;5035810;28;20040;-75
2023/08/27 11:57:46;;;;;;;1.30;1.15;;;;;;;;;;5031779;28;20041;-76
2023/08/27 12:00:14;;;;;;;2.17;1.45;;;;;;;;;;5016075;28;20083;-77
2023/08/27 12:02:40;;;;;;;3.35;1.23;;;;;;;;;;5032525;28;20520;-77
2023/08/27 12:05:08;;;;;;;1.65;1.42;;;;;;;;;;5031176;28;20122;-76
2023/08/27 12:07:35;;;;;;;2.35;1.48;;;;;;;;;;5014834;28;20044;-76
2023/08/27 12:10:08;;;;;;;1.40;1.30;;;;;;;;;;5012180;28;20040;-76
2023/08/27 12:12:41;;;;;;;3.13;1.30;;;;;;;;;;5020249;28;20092;-76
2023/08/27 12:15:08;;;;;;;3.03;1.40;;;;;;;;;;5035885;28;20367;-76
2023/08/27 12:17:35;;;;;;;1.80;1.55;;;;;;;;;;5008281;28;20125;-76
2023/08/27 12:20:05;;;;;;;0.90;0.70;;;;;;;;;;5035233;28;20053;-75
2023/08/27 12:22:32;;;;;;;1.90;1.00;;;;;;;;;;5034540;28;20072;-75
2023/08/27 12:25:00;;;;;;;1.35;0.85;;;;;;;;;;5014912;28;20053;-76
2023/08/27 12:27:26;;;;;;;13.40;1.80;;;;;;;;;;5031231;28;20036;-78
2023/08/27 12:29:53;;;;;;;11.88;2.10;;;;;;;;;;5030009;28;20448;-79
2023/08/27 12:32:22;;;;;;;93.25;5.57;;;;;;;;;;5028875;28;20036;-79
2023/08/27 12:34:52;;;;;;;19.92;3.38;;;;;;;;;;5027427;28;20728;-79
2023/08/27 12:37:22;;;;;;;15.90;3.70;;;;;;;;;;5008502;28;20093;-79
2023/08/27 12:39:49;;;;;;;6.82;2.72;;;;;;;;;;5013750;28;21571;-78
2023/08/27 12:42:16;;;;;;;7.20;3.20;;;;;;;;;;5006708;28;20084;-78
2023/08/27 12:44:42;;;;;;;6.10;3.17;;;;;;;;;;5019464;28;20096;-78
2023/08/27 12:47:08;;;;;;;2.83;2.47;;;;;;;;;;5020104;28;20044;-78
2023/08/27 12:49:35;;;;;;;3.45;2.38;;;;;;;;;;5033579;28;20048;-78
2023/08/27 12:52:01;;;;;;;3.75;2.78;;;;;;;;;;5034070;28;20476;-78
2023/08/27 12:54:27;;;;;;;5.15;2.95;;;;;;;;;;5032647;28;20509;-77
2023/08/27 12:56:53;;;;;;;4.10;2.90;;;;;;;;;;5033885;28;20080;-77
2023/08/27 12:59:20;;;;;;;29.10;3.22;;;;;;;;;;5031988;28;20041;-77
2023/08/27 13:01:46;;;;;;;10.38;3.05;;;;;;;;;;5032415;28;20614;-77
2023/08/27 13:04:12;;;;;;;5.53;2.78;;;;;;;;;;5016013;28;20052;-77
2023/08/27 13:06:39;;;;;;;3.90;2.53;;;;;;;;;;5029215;28;20132;-77
2023/08/27 13:09:06;;;;;;;2.22;1.90;;;;;;;;;;5012537;28;20127;-77
2023/08/27 13:11:34;;;;;;;1.58;1.15;;;;;;;;;;5018945;28;20041;-78
2023/08/27 13:14:00;;;;;;;1.20;1.10;;;;;;;;;;5013703;28;20183;-78
2023/08/27 13:16:26;;;;;;;1.20;1.10;;;;;;;;;;5015931;28;20064;-79
2023/08/27 13:18:53;;;;;;;2.53;1.30;;;;;;;;;;5003864;28;20048;-79
2023/08/27 13:21:19;;;;;;;1.77;1.00;;;;;;;;;;5036589;28;20048;-75
2023/08/27 13:23:45;;;;;;;3.70;1.15;;;;;;;;;;5014493;28;20136;-75
2023/08/27 13:26:12;;;;;;;6.00;1.38;;;;;;;;;;5034607;28;20610;-75
2023/08/27 13:28:38;;;;;;;1.30;1.10;;;;;;;;;;5018165;28;20048;-75
2023/08/27 13:31:04;;;;;;;3.63;0.73;;;;;;;;;;5017608;28;20149;-75
2023/08/27 13:33:31;;;;;;;2.45;1.05;;;;;;;;;;5028451;28;20051;-75
2023/08/27 13:35:58;;;;;;;1.33;0.70;;;;;;;;;;5023565;28;20044;-73
2023/08/27 13:38:25;;;;;;;1.35;0.55;;;;;;;;;;5037325;28;20052;-74
2023/08/27 13:40:51;;;;;;;1.15;0.70;;;;;;;;;;5009926;28;20040;-75
2023/08/27 13:43:17;;;;;;;0.98;0.60;;;;;;;;;;5020057;28;20488;-73
2023/08/27 13:45:43;;;;;;;0.95;0.65;;;;;;;;;;5040122;28;20040;-74
2023/08/27 13:48:09;;;;;;;1.17;0.90;;;;;;;;;;5018685;28;20044;-74
2023/08/27 13:50:35;;;;;;;0.88;0.50;;;;;;;;;;5020238;28;20136;-74
2023/08/27 13:53:02;;;;;;;1.05;0.80;;;;;;;;;;5036683;28;20548;-74
2023/08/27 13:55:28;;;;;;;1.42;0.70;;;;;;;;;;5026283;28;20143;-74
2023/08/27 13:57:55;;;;;;;1.52;0.57;;;;;;;;;;5022005;28;20082;-74
2023/08/27 14:00:21;;;;;;;1.33;0.60;;;;;;;;;;5009236;28;20040;-74
2023/08/27 14:02:47;;;;;;;0.63;0.50;;;;;;;;;;5039799;28;20040;-74
2023/08/27 14:05:13;;;;;;;0.50;0.50;;;;;;;;;;5005594;28;20049;-74
2023/08/27 14:07:39;;;;;;;2.72;0.70;;;;;;;;;;5021149;28;20060;-74
2023/08/27 14:10:05;;;;;;;8.55;1.10;;;;;;;;;;5036527;28;20708;-74
2023/08/27 14:12:31;;;;;;;2.55;0.75;;;;;;;;;;5020735;28;20467;-75
2023/08/27 14:14:57;;;;;;;0.73;0.55;;;;;;;;;;5041953;28;20271;-74
2023/08/27 14:17:23;;;;;;;3.55;0.70;;;;;;;;;;5021096;28;20045;-74
2023/08/27 14:19:50;;;;;;;0.93;0.60;;;;;;;;;;5028214;28;20091;-74
2023/08/27 14:22:16;;;;;;;2.97;0.93;;;;;;;;;;5015335;28;20064;-74
2023/08/27 14:24:42;;;;;;;1.33;0.68;;;;;;;;;;5014392;28;20579;-74
2023/08/27 14:27:08;;;;;;;2.65;0.73;;;;;;;;;;5014046;28;20140;-75